sensor_id;sensor_type;location;lat;lon;timestamp;P1;durP1;ratioP1;P2;durP2;ratioP2
14272;SDS011;7220;49.450;11.052;2023-12-14T00:00:35;2.88;;;2.30;;
14272;SDS011;7220;49.450;11.052;2023-12-14T00:04:36;5.30;;;3.05;;
14272;SDS011;7220;49.450;11.052;2023-12-14T00:08:36;2.80;;;2.45;;
14272;SDS011;7220;49.450;11.052;2023-12-14T00:12:37;3.13;;;2.45;;
14272;SDS011;7220;49.450;11.052;2023-12-14T00:16:37;2.85;;;2.40;;
14272;SDS011;7220;49.450;11.052;2023-12-14T00:20:37;4.05;;;2.65;;
14272;SDS011;7220;49.450;11.052;2023-12-14T00:24:38;2.70;;;1.98;;
14272;SDS011;7220;49.450;11.052;2023-12-14T00:28:38;3.03;;;2.53;;
14272;SDS011;7220;49.450;11.052;2023-12-14T00:32:38;4.20;;;2.85;;
14272;SDS011;7220;49.450;11.052;2023-12-14T00:36:39;3.58;;;2.53;;
14272;SDS011;7220;49.450;11.052;2023-12-14T00:40:39;3.72;;;2.60;;
14272;SDS011;7220;49.450;11.052;2023-12-14T00:44:39;3.05;;;2.25;;
14272;SDS011;7220;49.450;11.052;2023-12-14T00:48:40;4.10;;;2.78;;
14272;SDS011;7220;49.450;11.052;2023-12-14T00:52:40;3.20;;;2.63;;
14272;SDS011;7220;49.450;11.052;2023-12-14T00:56:41;3.45;;;2.40;;
14272;SDS011;7220;49.450;11.052;2023-12-14T01:00:41;2.67;;;2.30;;
14272;SDS011;7220;49.450;11.052;2023-12-14T01:04:42;2.72;;;2.40;;
14272;SDS011;7220;49.450;11.052;2023-12-14T01:08:42;3.03;;;2.13;;
14272;SDS011;7220;49.450;11.052;2023-12-14T01:12:43;3.08;;;2.22;;
14272;SDS011;7220;49.450;11.052;2023-12-14T01:16:43;2.90;;;2.67;;
14272;SDS011;7220;49.450;11.052;2023-12-14T01:20:43;4.30;;;2.53;;
14272;SDS011;7220;49.450;11.052;2023-12-14T01:24:44;3.72;;;2.80;;
14272;SDS011;7220;49.450;11.052;2023-12-14T01:28:44;3.33;;;2.42;;
14272;SDS011;7220;49.450;11.052;2023-12-14T01:32:44;3.83;;;2.60;;
14272;SDS011;7220;49.450;11.052;2023-12-14T01:36:45;5.15;;;2.83;;
14272;SDS011;7220;49.450;11.052;2023-12-14T01:40:45;2.90;;;2.45;;
14272;SDS011;7220;49.450;11.052;2023-12-14T01:44:46;5.97;;;2.58;;
14272;SDS011;7220;49.450;11.052;2023-12-14T01:48:46;3.97;;;2.75;;
14272;SDS011;7220;49.450;11.052;2023-12-14T01:52:46;3.50;;;2.72;;
14272;SDS011;7220;49.450;11.052;2023-12-14T01:56:47;3.25;;;2.70;;
14272;SDS011;7220;49.450;11.052;2023-12-14T02:05:00;4.15;;;3.28;;
14272;SDS011;7220;49.450;11.052;2023-12-14T02:09:01;5.28;;;3.25;;
14272;SDS011;7220;49.450;11.052;2023-12-14T02:13:02;4.43;;;3.17;;
14272;SDS011;7220;49.450;11.052;2023-12-14T02:17:02;3.00;;;2.65;;
14272;SDS011;7220;49.450;11.052;2023-12-14T02:21:03;4.68;;;3.38;;
14272;SDS011;7220;49.450;11.052;2023-12-14T02:25:03;5.90;;;3.83;;
14272;SDS011;7220;49.450;11.052;2023-12-14T02:29:04;3.22;;;2.90;;
14272;SDS011;7220;49.450;11.052;2023-12-14T02:33:04;4.78;;;2.80;;
14272;SDS011;7220;49.450;11.052;2023-12-14T02:37:05;5.70;;;3.63;;
14272;SDS011;7220;49.450;11.052;2023-12-14T02:41:05;4.20;;;2.88;;
14272;SDS011;7220;49.450;11.052;2023-12-14T02:45:06;4.28;;;3.10;;
14272;SDS011;7220;49.450;11.052;2023-12-14T02:49:08;3.33;;;2.83;;
14272;SDS011;7220;49.450;11.052;2023-12-14T02:53:08;5.45;;;3.92;;
14272;SDS011;7220;49.450;11.052;2023-12-14T02:57:09;6.07;;;3.20;;
14272;SDS011;7220;49.450;11.052;2023-12-14T03:01:09;5.50;;;3.85;;
14272;SDS011;7220;49.450;11.052;2023-12-14T03:05:09;4.85;;;3.40;;
14272;SDS011;7220;49.450;11.052;2023-12-14T03:09:10;5.03;;;3.10;;
14272;SDS011;7220;49.450;11.052;2023-12-14T03:13:10;5.65;;;3.13;;
14272;SDS011;7220;49.450;11.052;2023-12-14T03:17:11;5.30;;;3.35;;
14272;SDS011;7220;49.450;11.052;2023-12-14T03:21:12;5.28;;;3.30;;
14272;SDS011;7220;49.450;11.052;2023-12-14T03:25:13;5.35;;;3.28;;
14272;SDS011;7220;49.450;11.052;2023-12-14T03:29:13;4.70;;;3.63;;
14272;SDS011;7220;49.450;11.052;2023-12-14T03:33:14;6.75;;;3.55;;
14272;SDS011;7220;49.450;11.052;2023-12-14T03:37:14;5.45;;;3.03;;
14272;SDS011;7220;49.450;11.052;2023-12-14T03:41:14;4.45;;;3.25;;
14272;SDS011;7220;49.450;11.052;2023-12-14T03:45:15;5.38;;;3.67;;
14272;SDS011;7220;49.450;11.052;2023-12-14T03:49:15;4.65;;;3.47;;
14272;SDS011;7220;49.450;11.052;2023-12-14T03:53:15;4.07;;;3.50;;
14272;SDS011;7220;49.450;11.052;2023-12-14T03:57:16;6.65;;;4.22;;
14272;SDS011;7220;49.450;11.052;2023-12-14T04:01:19;5.20;;;4.03;;
14272;SDS011;7220;49.450;11.052;2023-12-14T04:05:21;6.40;;;4.28;;
14272;SDS011;7220;49.450;11.052;2023-12-14T04:09:21;5.68;;;3.95;;
14272;SDS011;7220;49.450;11.052;2023-12-14T04:13:21;5.82;;;4.07;;
14272;SDS011;7220;49.450;11.052;2023-12-14T04:17:22;7.03;;;4.88;;
14272;SDS011;7220;49.450;11.052;2023-12-14T04:21:23;7.25;;;4.18;;
14272;SDS011;7220;49.450;11.052;2023-12-14T04:25:23;6.80;;;4.32;;
14272;SDS011;7220;49.450;11.052;2023-12-14T04:29:23;5.30;;;3.72;;
14272;SDS011;7220;49.450;11.052;2023-12-14T04:33:24;6.63;;;4.50;;
14272;SDS011;7220;49.450;11.052;2023-12-14T04:37:24;5.80;;;3.15;;
14272;SDS011;7220;49.450;11.052;2023-12-14T04:41:24;8.40;;;3.83;;
14272;SDS011;7220;49.450;11.052;2023-12-14T04:45:25;8.20;;;4.18;;
14272;SDS011;7220;49.450;11.052;2023-12-14T04:49:25;7.32;;;4.47;;
14272;SDS011;7220;49.450;11.052;2023-12-14T04:53:25;5.93;;;3.78;;
14272;SDS011;7220;49.450;11.052;2023-12-14T04:57:26;7.30;;;4.43;;
14272;SDS011;7220;49.450;11.052;2023-12-14T05:01:26;7.90;;;4.10;;
14272;SDS011;7220;49.450;11.052;2023-12-14T05:05:27;4.72;;;3.63;;
14272;SDS011;7220;49.450;11.052;2023-12-14T05:09:27;8.77;;;4.45;;
14272;SDS011;7220;49.450;11.052;2023-12-14T05:13:28;6.00;;;3.80;;
14272;SDS011;7220;49.450;11.052;2023-12-14T05:17:28;5.45;;;3.13;;
14272;SDS011;7220;49.450;11.052;2023-12-14T05:21:28;4.78;;;3.25;;
14272;SDS011;7220;49.450;11.052;2023-12-14T05:25:29;5.32;;;3.88;;
14272;SDS011;7220;49.450;11.052;2023-12-14T05:29:29;5.97;;;3.90;;
14272;SDS011;7220;49.450;11.052;2023-12-14T05:33:30;7.70;;;3.80;;
14272;SDS011;7220;49.450;11.052;2023-12-14T05:37:31;6.28;;;4.35;;
14272;SDS011;7220;49.450;11.052;2023-12-14T05:41:31;6.15;;;4.22;;
14272;SDS011;7220;49.450;11.052;2023-12-14T05:45:32;6.38;;;4.15;;
14272;SDS011;7220;49.450;11.052;2023-12-14T05:49:32;7.18;;;4.18;;
14272;SDS011;7220;49.450;11.052;2023-12-14T05:53:32;4.65;;;3.83;;
14272;SDS011;7220;49.450;11.052;2023-12-14T05:57:36;7.32;;;4.07;;
14272;SDS011;7220;49.450;11.052;2023-12-14T06:01:36;4.85;;;3.97;;
14272;SDS011;7220;49.450;11.052;2023-12-14T06:05:37;5.88;;;3.75;;
14272;SDS011;7220;49.450;11.052;2023-12-14T06:09:39;5.43;;;3.47;;
14272;SDS011;7220;49.450;11.052;2023-12-14T06:13:39;6.03;;;3.85;;
14272;SDS011;7220;49.450;11.052;2023-12-14T06:17:40;7.10;;;4.32;;
14272;SDS011;7220;49.450;11.052;2023-12-14T06:21:42;6.30;;;3.90;;
14272;SDS011;7220;49.450;11.052;2023-12-14T06:25:42;4.57;;;3.42;;
14272;SDS011;7220;49.450;11.052;2023-12-14T06:29:43;7.78;;;4.30;;
14272;SDS011;7220;49.450;11.052;2023-12-14T06:33:43;6.82;;;4.55;;
14272;SDS011;7220;49.450;11.052;2023-12-14T06:37:44;7.85;;;5.03;;
14272;SDS011;7220;49.450;11.052;2023-12-14T06:41:44;9.00;;;4.78;;
14272;SDS011;7220;49.450;11.052;2023-12-14T06:45:44;7.40;;;4.78;;
14272;SDS011;7220;49.450;11.052;2023-12-14T06:49:45;7.07;;;4.22;;
14272;SDS011;7220;49.450;11.052;2023-12-14T06:53:45;7.07;;;4.75;;
14272;SDS011;7220;49.450;11.052;2023-12-14T06:57:48;7.53;;;4.93;;
14272;SDS011;7220;49.450;11.052;2023-12-14T07:01:49;6.20;;;4.13;;
14272;SDS011;7220;49.450;11.052;2023-12-14T07:05:49;8.32;;;4.53;;
14272;SDS011;7220;49.450;11.052;2023-12-14T07:09:49;7.15;;;4.43;;
14272;SDS011;7220;49.450;11.052;2023-12-14T07:13:50;6.20;;;4.40;;
14272;SDS011;7220;49.450;11.052;2023-12-14T07:17:50;8.15;;;4.50;;
14272;SDS011;7220;49.450;11.052;2023-12-14T07:21:51;9.25;;;5.50;;
14272;SDS011;7220;49.450;11.052;2023-12-14T07:25:51;10.75;;;5.13;;
14272;SDS011;7220;49.450;11.052;2023-12-14T07:29:51;8.73;;;5.28;;
14272;SDS011;7220;49.450;11.052;2023-12-14T07:33:52;8.80;;;5.45;;
14272;SDS011;7220;49.450;11.052;2023-12-14T07:37:52;10.90;;;5.30;;
14272;SDS011;7220;49.450;11.052;2023-12-14T07:41:52;8.10;;;5.13;;
14272;SDS011;7220;49.450;11.052;2023-12-14T07:45:53;7.18;;;4.38;;
14272;SDS011;7220;49.450;11.052;2023-12-14T07:49:53;10.40;;;5.47;;
14272;SDS011;7220;49.450;11.052;2023-12-14T07:53:54;9.02;;;5.05;;
14272;SDS011;7220;49.450;11.052;2023-12-14T07:57:55;7.95;;;4.50;;
14272;SDS011;7220;49.450;11.052;2023-12-14T08:01:56;7.47;;;4.85;;
14272;SDS011;7220;49.450;11.052;2023-12-14T08:05:57;9.35;;;6.13;;
14272;SDS011;7220;49.450;11.052;2023-12-14T08:09:57;10.05;;;5.65;;
14272;SDS011;7220;49.450;11.052;2023-12-14T08:13:58;10.88;;;5.40;;
14272;SDS011;7220;49.450;11.052;2023-12-14T08:17:58;10.23;;;5.40;;
14272;SDS011;7220;49.450;11.052;2023-12-14T08:21:59;12.90;;;5.05;;
14272;SDS011;7220;49.450;11.052;2023-12-14T08:26:00;9.13;;;4.82;;
14272;SDS011;7220;49.450;11.052;2023-12-14T08:30:00;9.25;;;5.43;;
14272;SDS011;7220;49.450;11.052;2023-12-14T08:34:00;7.75;;;5.20;;
14272;SDS011;7220;49.450;11.052;2023-12-14T08:38:01;8.90;;;5.38;;
14272;SDS011;7220;49.450;11.052;2023-12-14T08:42:01;9.50;;;4.93;;
14272;SDS011;7220;49.450;11.052;2023-12-14T08:46:01;10.38;;;5.60;;
14272;SDS011;7220;49.450;11.052;2023-12-14T08:50:02;7.88;;;4.70;;
14272;SDS011;7220;49.450;11.052;2023-12-14T08:54:03;9.43;;;5.05;;
14272;SDS011;7220;49.450;11.052;2023-12-14T08:58:04;7.97;;;4.32;;
14272;SDS011;7220;49.450;11.052;2023-12-14T09:02:04;8.43;;;4.82;;
14272;SDS011;7220;49.450;11.052;2023-12-14T09:06:05;8.32;;;5.20;;
14272;SDS011;7220;49.450;11.052;2023-12-14T09:10:05;9.02;;;5.32;;
14272;SDS011;7220;49.450;11.052;2023-12-14T09:14:06;9.02;;;5.03;;
14272;SDS011;7220;49.450;11.052;2023-12-14T09:18:07;7.78;;;4.72;;
14272;SDS011;7220;49.450;11.052;2023-12-14T09:22:07;8.57;;;4.78;;
14272;SDS011;7220;49.450;11.052;2023-12-14T09:26:07;7.15;;;4.72;;
14272;SDS011;7220;49.450;11.052;2023-12-14T09:30:08;7.47;;;4.47;;
14272;SDS011;7220;49.450;11.052;2023-12-14T09:34:12;6.22;;;4.40;;
14272;SDS011;7220;49.450;11.052;2023-12-14T09:38:13;6.40;;;4.13;;
14272;SDS011;7220;49.450;11.052;2023-12-14T09:42:17;7.90;;;4.75;;
14272;SDS011;7220;49.450;11.052;2023-12-14T09:46:20;7.75;;;4.35;;
14272;SDS011;7220;49.450;11.052;2023-12-14T09:50:22;7.20;;;4.20;;
14272;SDS011;7220;49.450;11.052;2023-12-14T09:54:24;7.70;;;4.30;;
14272;SDS011;7220;49.450;11.052;2023-12-14T09:58:26;11.65;;;4.80;;
14272;SDS011;7220;49.450;11.052;2023-12-14T10:02:26;6.53;;;4.35;;
14272;SDS011;7220;49.450;11.052;2023-12-14T10:06:27;7.13;;;4.47;;
14272;SDS011;7220;49.450;11.052;2023-12-14T10:10:28;5.82;;;4.15;;
14272;SDS011;7220;49.450;11.052;2023-12-14T10:14:29;6.55;;;4.13;;
14272;SDS011;7220;49.450;11.052;2023-12-14T10:18:29;5.03;;;3.55;;
14272;SDS011;7220;49.450;11.052;2023-12-14T10:22:34;6.20;;;3.58;;
14272;SDS011;7220;49.450;11.052;2023-12-14T10:26:37;8.65;;;4.10;;
14272;SDS011;7220;49.450;11.052;2023-12-14T10:30:37;8.50;;;4.40;;
14272;SDS011;7220;49.450;11.052;2023-12-14T10:34:38;6.30;;;3.95;;
14272;SDS011;7220;49.450;11.052;2023-12-14T10:38:42;7.97;;;4.88;;
14272;SDS011;7220;49.450;11.052;2023-12-14T10:42:44;7.55;;;4.55;;
14272;SDS011;7220;49.450;11.052;2023-12-14T10:46:46;8.00;;;4.75;;
14272;SDS011;7220;49.450;11.052;2023-12-14T10:50:48;7.57;;;4.22;;
14272;SDS011;7220;49.450;11.052;2023-12-14T10:54:52;6.55;;;3.92;;
14272;SDS011;7220;49.450;11.052;2023-12-14T10:58:58;5.50;;;3.83;;
14272;SDS011;7220;49.450;11.052;2023-12-14T11:03:00;5.20;;;3.33;;
14272;SDS011;7220;49.450;11.052;2023-12-14T11:07:00;6.68;;;4.47;;
14272;SDS011;7220;49.450;11.052;2023-12-14T11:11:03;7.80;;;3.80;;
14272;SDS011;7220;49.450;11.052;2023-12-14T11:15:11;5.35;;;3.65;;
14272;SDS011;7220;49.450;11.052;2023-12-14T11:19:44;7.07;;;3.80;;
14272;SDS011;7220;49.450;11.052;2023-12-14T11:23:39;6.30;;;3.80;;
14272;SDS011;7220;49.450;11.052;2023-12-14T11:27:43;5.60;;;3.28;;
14272;SDS011;7220;49.450;11.052;2023-12-14T11:31:46;4.95;;;3.55;;
14272;SDS011;7220;49.450;11.052;2023-12-14T11:35:46;4.43;;;3.10;;
14272;SDS011;7220;49.450;11.052;2023-12-14T11:39:48;5.28;;;3.35;;
14272;SDS011;7220;49.450;11.052;2023-12-14T11:43:49;7.55;;;4.10;;
14272;SDS011;7220;49.450;11.052;2023-12-14T11:47:50;6.38;;;3.58;;
14272;SDS011;7220;49.450;11.052;2023-12-14T11:51:50;6.07;;;3.78;;
14272;SDS011;7220;49.450;11.052;2023-12-14T11:55:52;4.43;;;3.00;;
14272;SDS011;7220;49.450;11.052;2023-12-14T11:59:53;5.55;;;3.75;;
14272;SDS011;7220;49.450;11.052;2023-12-14T12:03:54;4.18;;;3.28;;
14272;SDS011;7220;49.450;11.052;2023-12-14T12:07:57;5.15;;;3.08;;
14272;SDS011;7220;49.450;11.052;2023-12-14T12:11:57;6.13;;;3.78;;
14272;SDS011;7220;49.450;11.052;2023-12-14T12:15:58;4.45;;;3.22;;
14272;SDS011;7220;49.450;11.052;2023-12-14T12:19:58;3.22;;;2.67;;
14272;SDS011;7220;49.450;11.052;2023-12-14T12:23:58;4.57;;;3.08;;
14272;SDS011;7220;49.450;11.052;2023-12-14T12:27:59;2.92;;;2.28;;
14272;SDS011;7220;49.450;11.052;2023-12-14T12:32:01;4.80;;;3.10;;
14272;SDS011;7220;49.450;11.052;2023-12-14T12:36:01;3.50;;;2.88;;
14272;SDS011;7220;49.450;11.052;2023-12-14T12:40:02;4.80;;;2.95;;
14272;SDS011;7220;49.450;11.052;2023-12-14T12:44:06;3.88;;;2.65;;
14272;SDS011;7220;49.450;11.052;2023-12-14T12:48:09;4.93;;;3.20;;
14272;SDS011;7220;49.450;11.052;2023-12-14T12:52:10;4.90;;;2.90;;
14272;SDS011;7220;49.450;11.052;2023-12-14T12:56:10;4.13;;;2.97;;
14272;SDS011;7220;49.450;11.052;2023-12-14T13:00:11;5.47;;;3.65;;
14272;SDS011;7220;49.450;11.052;2023-12-14T13:04:18;5.18;;;3.50;;
14272;SDS011;7220;49.450;11.052;2023-12-14T13:08:20;6.80;;;3.83;;
14272;SDS011;7220;49.450;11.052;2023-12-14T13:12:22;7.78;;;3.67;;
14272;SDS011;7220;49.450;11.052;2023-12-14T13:16:23;7.03;;;3.90;;
14272;SDS011;7220;49.450;11.052;2023-12-14T13:20:23;5.30;;;3.67;;
14272;SDS011;7220;49.450;11.052;2023-12-14T13:24:24;6.53;;;3.67;;
14272;SDS011;7220;49.450;11.052;2023-12-14T13:28:24;6.70;;;4.30;;
14272;SDS011;7220;49.450;11.052;2023-12-14T13:32:24;8.27;;;4.60;;
14272;SDS011;7220;49.450;11.052;2023-12-14T13:36:25;5.57;;;3.80;;
14272;SDS011;7220;49.450;11.052;2023-12-14T13:40:25;5.20;;;3.55;;
14272;SDS011;7220;49.450;11.052;2023-12-14T13:44:26;7.43;;;4.25;;
14272;SDS011;7220;49.450;11.052;2023-12-14T13:48:27;9.98;;;4.28;;
14272;SDS011;7220;49.450;11.052;2023-12-14T13:52:28;5.55;;;3.47;;
14272;SDS011;7220;49.450;11.052;2023-12-14T13:56:28;6.68;;;3.47;;
14272;SDS011;7220;49.450;11.052;2023-12-14T14:00:29;6.47;;;2.92;;
14272;SDS011;7220;49.450;11.052;2023-12-14T14:04:29;5.03;;;3.05;;
14272;SDS011;7220;49.450;11.052;2023-12-14T14:08:30;7.43;;;2.97;;
14272;SDS011;7220;49.450;11.052;2023-12-14T14:12:31;3.17;;;2.63;;
14272;SDS011;7220;49.450;11.052;2023-12-14T14:16:31;3.00;;;2.13;;
14272;SDS011;7220;49.450;11.052;2023-12-14T14:20:32;2.42;;;2.10;;
14272;SDS011;7220;49.450;11.052;2023-12-14T14:24:32;3.03;;;1.90;;
14272;SDS011;7220;49.450;11.052;2023-12-14T14:28:33;5.28;;;2.00;;
14272;SDS011;7220;49.450;11.052;2023-12-14T14:32:33;3.10;;;2.15;;
14272;SDS011;7220;49.450;11.052;2023-12-14T14:36:37;3.97;;;2.28;;
14272;SDS011;7220;49.450;11.052;2023-12-14T14:40:37;2.30;;;2.08;;
14272;SDS011;7220;49.450;11.052;2023-12-14T14:44:38;1.65;;;1.55;;
14272;SDS011;7220;49.450;11.052;2023-12-14T14:48:39;2.42;;;1.92;;
14272;SDS011;7220;49.450;11.052;2023-12-14T14:52:39;2.47;;;2.22;;
14272;SDS011;7220;49.450;11.052;2023-12-14T14:56:40;2.28;;;1.73;;
14272;SDS011;7220;49.450;11.052;2023-12-14T15:00:41;2.75;;;2.05;;
14272;SDS011;7220;49.450;11.052;2023-12-14T15:04:41;5.22;;;2.65;;
14272;SDS011;7220;49.450;11.052;2023-12-14T15:08:41;2.85;;;2.45;;
14272;SDS011;7220;49.450;11.052;2023-12-14T15:12:42;3.22;;;2.50;;
14272;SDS011;7220;49.450;11.052;2023-12-14T15:16:42;6.50;;;3.92;;
14272;SDS011;7220;49.450;11.052;2023-12-14T15:20:42;9.05;;;5.15;;
14272;SDS011;7220;49.450;11.052;2023-12-14T15:24:43;3.40;;;3.08;;
14272;SDS011;7220;49.450;11.052;2023-12-14T15:28:43;5.07;;;2.90;;
14272;SDS011;7220;49.450;11.052;2023-12-14T15:32:43;4.68;;;3.05;;
14272;SDS011;7220;49.450;11.052;2023-12-14T15:36:44;5.82;;;3.45;;
14272;SDS011;7220;49.450;11.052;2023-12-14T15:40:44;4.55;;;2.75;;
14272;SDS011;7220;49.450;11.052;2023-12-14T15:44:45;3.55;;;2.80;;
14272;SDS011;7220;49.450;11.052;2023-12-14T15:48:45;5.20;;;3.35;;
14272;SDS011;7220;49.450;11.052;2023-12-14T15:52:46;5.18;;;3.38;;
14272;SDS011;7220;49.450;11.052;2023-12-14T15:56:46;4.32;;;2.92;;
14272;SDS011;7220;49.450;11.052;2023-12-14T16:00:47;4.03;;;2.58;;
14272;SDS011;7220;49.450;11.052;2023-12-14T16:04:47;4.95;;;2.90;;
14272;SDS011;7220;49.450;11.052;2023-12-14T16:08:48;7.68;;;3.50;;
14272;SDS011;7220;49.450;11.052;2023-12-14T16:12:48;4.03;;;3.03;;
14272;SDS011;7220;49.450;11.052;2023-12-14T16:16:51;5.03;;;3.38;;
14272;SDS011;7220;49.450;11.052;2023-12-14T16:20:51;5.15;;;3.50;;
14272;SDS011;7220;49.450;11.052;2023-12-14T16:24:51;3.72;;;2.88;;
14272;SDS011;7220;49.450;11.052;2023-12-14T16:28:52;4.55;;;2.83;;
14272;SDS011;7220;49.450;11.052;2023-12-14T16:32:52;4.60;;;3.13;;
14272;SDS011;7220;49.450;11.052;2023-12-14T16:36:54;3.97;;;2.53;;
14272;SDS011;7220;49.450;11.052;2023-12-14T16:40:54;5.07;;;2.90;;
14272;SDS011;7220;49.450;11.052;2023-12-14T16:44:55;3.17;;;2.40;;
14272;SDS011;7220;49.450;11.052;2023-12-14T16:48:55;3.67;;;2.22;;
14272;SDS011;7220;49.450;11.052;2023-12-14T16:52:56;4.18;;;2.42;;
14272;SDS011;7220;49.450;11.052;2023-12-14T16:56:56;4.60;;;2.63;;
14272;SDS011;7220;49.450;11.052;2023-12-14T17:00:56;3.13;;;2.08;;
14272;SDS011;7220;49.450;11.052;2023-12-14T17:04:57;2.85;;;2.28;;
14272;SDS011;7220;49.450;11.052;2023-12-14T17:08:59;3.17;;;2.25;;
14272;SDS011;7220;49.450;11.052;2023-12-14T17:12:59;2.35;;;2.15;;
14272;SDS011;7220;49.450;11.052;2023-12-14T17:17:00;3.35;;;2.10;;
14272;SDS011;7220;49.450;11.052;2023-12-14T17:21:00;2.20;;;1.77;;
14272;SDS011;7220;49.450;11.052;2023-12-14T17:25:00;2.15;;;1.95;;
14272;SDS011;7220;49.450;11.052;2023-12-14T17:29:01;2.97;;;2.10;;
14272;SDS011;7220;49.450;11.052;2023-12-14T17:33:06;2.75;;;2.17;;
14272;SDS011;7220;49.450;11.052;2023-12-14T17:37:07;3.80;;;1.90;;
14272;SDS011;7220;49.450;11.052;2023-12-14T17:41:08;2.60;;;1.98;;
14272;SDS011;7220;49.450;11.052;2023-12-14T17:45:10;2.20;;;1.90;;
14272;SDS011;7220;49.450;11.052;2023-12-14T17:49:10;2.38;;;1.70;;
14272;SDS011;7220;49.450;11.052;2023-12-14T17:53:11;2.05;;;1.80;;
14272;SDS011;7220;49.450;11.052;2023-12-14T17:57:11;2.47;;;2.20;;
14272;SDS011;7220;49.450;11.052;2023-12-14T18:01:12;2.30;;;2.00;;
14272;SDS011;7220;49.450;11.052;2023-12-14T18:05:12;2.22;;;1.98;;
14272;SDS011;7220;49.450;11.052;2023-12-14T18:09:13;3.13;;;2.15;;
14272;SDS011;7220;49.450;11.052;2023-12-14T18:13:13;2.17;;;1.85;;
14272;SDS011;7220;49.450;11.052;2023-12-14T18:17:14;2.25;;;2.05;;
14272;SDS011;7220;49.450;11.052;2023-12-14T18:21:14;2.95;;;2.25;;
14272;SDS011;7220;49.450;11.052;2023-12-14T18:25:14;2.83;;;1.98;;
14272;SDS011;7220;49.450;11.052;2023-12-14T18:29:17;2.42;;;2.00;;
14272;SDS011;7220;49.450;11.052;2023-12-14T18:33:17;3.42;;;1.80;;
14272;SDS011;7220;49.450;11.052;2023-12-14T18:37:18;1.48;;;1.38;;
14272;SDS011;7220;49.450;11.052;2023-12-14T18:41:18;2.17;;;1.80;;
14272;SDS011;7220;49.450;11.052;2023-12-14T18:45:19;1.85;;;1.60;;
14272;SDS011;7220;49.450;11.052;2023-12-14T18:49:19;2.92;;;2.20;;
14272;SDS011;7220;49.450;11.052;2023-12-14T18:53:19;2.28;;;1.83;;
14272;SDS011;7220;49.450;11.052;2023-12-14T18:57:20;3.08;;;2.13;;
14272;SDS011;7220;49.450;11.052;2023-12-14T19:01:20;1.77;;;1.67;;
14272;SDS011;7220;49.450;11.052;2023-12-14T19:05:21;2.42;;;1.90;;
14272;SDS011;7220;49.450;11.052;2023-12-14T19:09:23;3.17;;;1.70;;
14272;SDS011;7220;49.450;11.052;2023-12-14T19:13:24;1.88;;;1.70;;
14272;SDS011;7220;49.450;11.052;2023-12-14T19:17:24;2.30;;;2.10;;
14272;SDS011;7220;49.450;11.052;2023-12-14T19:21:25;3.08;;;1.70;;
14272;SDS011;7220;49.450;11.052;2023-12-14T19:25:26;3.10;;;2.20;;
14272;SDS011;7220;49.450;11.052;2023-12-14T19:29:26;1.95;;;1.73;;
14272;SDS011;7220;49.450;11.052;2023-12-14T19:33:26;3.38;;;2.50;;
14272;SDS011;7220;49.450;11.052;2023-12-14T19:37:27;3.15;;;1.60;;
14272;SDS011;7220;49.450;11.052;2023-12-14T19:41:27;2.55;;;1.95;;
14272;SDS011;7220;49.450;11.052;2023-12-14T19:45:28;2.95;;;1.75;;
14272;SDS011;7220;49.450;11.052;2023-12-14T19:49:28;2.50;;;1.98;;
14272;SDS011;7220;49.450;11.052;2023-12-14T19:53:28;4.22;;;3.65;;
14272;SDS011;7220;49.450;11.052;2023-12-14T19:57:30;2.40;;;2.20;;
14272;SDS011;7220;49.450;11.052;2023-12-14T20:01:31;2.50;;;2.13;;
14272;SDS011;7220;49.450;11.052;2023-12-14T20:05:32;2.40;;;2.05;;
14272;SDS011;7220;49.450;11.052;2023-12-14T20:09:35;3.22;;;2.13;;
14272;SDS011;7220;49.450;11.052;2023-12-14T20:13:36;2.97;;;2.50;;
14272;SDS011;7220;49.450;11.052;2023-12-14T20:17:36;3.83;;;2.10;;
14272;SDS011;7220;49.450;11.052;2023-12-14T20:21:36;4.03;;;2.10;;
14272;SDS011;7220;49.450;11.052;2023-12-14T20:25:37;3.65;;;2.47;;
14272;SDS011;7220;49.450;11.052;2023-12-14T20:29:38;4.43;;;2.08;;
14272;SDS011;7220;49.450;11.052;2023-12-14T20:33:39;2.60;;;2.38;;
14272;SDS011;7220;49.450;11.052;2023-12-14T20:37:41;3.30;;;2.45;;
14272;SDS011;7220;49.450;11.052;2023-12-14T20:41:41;4.40;;;2.78;;
14272;SDS011;7220;49.450;11.052;2023-12-14T20:45:41;3.22;;;2.35;;
14272;SDS011;7220;49.450;11.052;2023-12-14T20:49:42;4.22;;;2.65;;
14272;SDS011;7220;49.450;11.052;2023-12-14T20:53:42;3.28;;;2.17;;
14272;SDS011;7220;49.450;11.052;2023-12-14T20:57:43;3.30;;;2.22;;
14272;SDS011;7220;49.450;11.052;2023-12-14T21:01:44;3.08;;;2.60;;
14272;SDS011;7220;49.450;11.052;2023-12-14T21:05:44;3.88;;;2.78;;
14272;SDS011;7220;49.450;11.052;2023-12-14T21:09:44;5.95;;;3.40;;
14272;SDS011;7220;49.450;11.052;2023-12-14T21:13:45;4.25;;;3.40;;
14272;SDS011;7220;49.450;11.052;2023-12-14T21:17:46;2.70;;;2.33;;
14272;SDS011;7220;49.450;11.052;2023-12-14T21:21:47;5.13;;;3.03;;
14272;SDS011;7220;49.450;11.052;2023-12-14T21:25:47;5.43;;;3.20;;
14272;SDS011;7220;49.450;11.052;2023-12-14T21:30:03;4.18;;;3.03;;
14272;SDS011;7220;49.450;11.052;2023-12-14T21:34:03;3.80;;;2.70;;
14272;SDS011;7220;49.450;11.052;2023-12-14T21:38:04;3.88;;;3.33;;
14272;SDS011;7220;49.450;11.052;2023-12-14T21:42:04;4.93;;;3.03;;
14272;SDS011;7220;49.450;11.052;2023-12-14T21:46:05;3.90;;;2.60;;
14272;SDS011;7220;49.450;11.052;2023-12-14T21:50:06;4.75;;;2.85;;
14272;SDS011;7220;49.450;11.052;2023-12-14T21:54:06;4.15;;;2.50;;
14272;SDS011;7220;49.450;11.052;2023-12-14T21:58:07;5.40;;;3.28;;
14272;SDS011;7220;49.450;11.052;2023-12-14T22:02:07;4.47;;;3.15;;
14272;SDS011;7220;49.450;11.052;2023-12-14T22:06:07;3.58;;;2.53;;
14272;SDS011;7220;49.450;11.052;2023-12-14T22:10:08;3.35;;;2.42;;
14272;SDS011;7220;49.450;11.052;2023-12-14T22:14:15;2.85;;;2.60;;
14272;SDS011;7220;49.450;11.052;2023-12-14T22:18:15;3.05;;;2.67;;
14272;SDS011;7220;49.450;11.052;2023-12-14T22:22:16;4.22;;;2.85;;
14272;SDS011;7220;49.450;11.052;2023-12-14T22:26:16;4.28;;;3.15;;
14272;SDS011;7220;49.450;11.052;2023-12-14T22:30:17;4.68;;;2.80;;
14272;SDS011;7220;49.450;11.052;2023-12-14T22:34:17;5.80;;;3.22;;
14272;SDS011;7220;49.450;11.052;2023-12-14T22:38:17;5.20;;;2.78;;
14272;SDS011;7220;49.450;11.052;2023-12-14T22:42:18;3.65;;;2.97;;
14272;SDS011;7220;49.450;11.052;2023-12-14T22:46:18;2.58;;;2.38;;
14272;SDS011;7220;49.450;11.052;2023-12-14T22:50:19;6.22;;;3.15;;
14272;SDS011;7220;49.450;11.052;2023-12-14T22:54:20;4.47;;;2.97;;
14272;SDS011;7220;49.450;11.052;2023-12-14T22:58:21;3.13;;;2.38;;
14272;SDS011;7220;49.450;11.052;2023-12-14T23:02:21;3.92;;;2.70;;
14272;SDS011;7220;49.450;11.052;2023-12-14T23:06:26;5.63;;;3.10;;
14272;SDS011;7220;49.450;11.052;2023-12-14T23:10:27;5.28;;;3.42;;
14272;SDS011;7220;49.450;11.052;2023-12-14T23:14:27;4.03;;;2.95;;
14272;SDS011;7220;49.450;11.052;2023-12-14T23:18:27;4.75;;;3.03;;
14272;SDS011;7220;49.450;11.052;2023-12-14T23:22:28;4.28;;;3.17;;
14272;SDS011;7220;49.450;11.052;2023-12-14T23:26:28;4.68;;;2.63;;
14272;SDS011;7220;49.450;11.052;2023-12-14T23:30:28;5.28;;;3.45;;
14272;SDS011;7220;49.450;11.052;2023-12-14T23:34:29;3.30;;;2.78;;
14272;SDS011;7220;49.450;11.052;2023-12-14T23:38:29;3.47;;;2.92;;
14272;SDS011;7220;49.450;11.052;2023-12-14T23:42:30;4.15;;;3.25;;
14272;SDS011;7220;49.450;11.052;2023-12-14T23:46:30;3.20;;;2.53;;
14272;SDS011;7220;49.450;11.052;2023-12-14T23:50:30;4.68;;;3.05;;
14272;SDS011;7220;49.450;11.052;2023-12-14T23:54:30;5.47;;;2.95;;
14272;SDS011;7220;49.450;11.052;2023-12-14T23:58:31;5.15;;;3.05;;
